createdAt,value
2018-06-18T05:15:21.789Z,20
2018-06-18T05:16:12.128Z,20
2018-06-18T05:17:02.224Z,20
2018-06-18T05:17:51.437Z,20
2018-06-18T05:18:41.479Z,20
2018-06-18T05:19:31.853Z,20
2018-06-18T05:20:22.843Z,20
2018-06-18T05:21:12.598Z,20
2018-06-18T05:22:02.339Z,20
2018-06-18T05:22:52.464Z,20
2018-06-18T05:23:42.212Z,20
2018-06-18T05:24:32.226Z,20
2018-06-18T05:25:22.655Z,20
2018-06-18T05:26:12.353Z,20
2018-06-18T05:27:02.206Z,20
2018-06-18T05:27:52.547Z,20
2018-06-18T05:28:43.003Z,20
2018-06-18T05:29:32.364Z,20
2018-06-18T05:30:22.443Z,20
2018-06-18T05:31:12.502Z,20
2018-06-18T05:32:02.550Z,20
2018-06-18T05:32:52.620Z,20
2018-06-18T05:33:42.923Z,20
2018-06-18T05:34:33.048Z,20
2018-06-18T05:35:23.713Z,20
2018-06-18T05:36:12.955Z,20
2018-06-18T05:37:01.839Z,20
2018-06-18T05:37:52.980Z,20
2018-06-18T05:38:44.138Z,20
2018-06-18T05:39:33.991Z,20
2018-06-18T05:40:23.788Z,19.9
2018-06-18T05:41:13.879Z,19.9
2018-06-18T05:42:04.365Z,19.9
2018-06-18T05:42:52.815Z,19.9
2018-06-18T05:43:43.782Z,19.9
2018-06-18T05:44:33.729Z,19.9
2018-06-18T05:45:23.820Z,19.9
2018-06-18T05:46:14.141Z,19.9
2018-06-18T05:47:03.493Z,19.9
2018-06-18T05:47:53.502Z,20
2018-06-18T05:48:44.124Z,20
2018-06-18T05:49:34.242Z,20
2018-06-18T05:50:24.644Z,19.9
2018-06-18T05:51:14.305Z,20
2018-06-18T05:52:04.065Z,20
2018-06-18T05:52:54.974Z,20
2018-06-18T05:53:45.018Z,19.9
2018-06-18T05:54:34.791Z,20
2018-06-18T05:55:24.626Z,20
2018-06-18T05:56:14.877Z,19.9
2018-06-18T05:57:05.039Z,20
2018-06-18T05:57:54.748Z,20
2018-06-18T05:58:45.547Z,19.9
2018-06-18T05:59:35.179Z,19.9
2018-06-18T06:00:24.719Z,20
2018-06-18T06:01:15.016Z,20
2018-06-18T06:02:05.656Z,20
2018-06-18T06:02:54.756Z,20
2018-06-18T06:03:45.481Z,19.9
2018-06-18T06:04:35.057Z,20
2018-06-18T06:05:26.218Z,20
2018-06-18T06:06:15.838Z,20
2018-06-18T06:07:06.031Z,19.9
2018-06-18T06:07:55.733Z,20
2018-06-18T06:08:45.638Z,20
2018-06-18T06:09:36.057Z,20
2018-06-18T06:10:26.246Z,20
2018-06-18T06:11:15.548Z,20
2018-06-18T06:12:06.424Z,19.9
2018-06-18T06:12:55.789Z,20
2018-06-18T06:13:46.662Z,20
2018-06-18T06:14:35.870Z,20
2018-06-18T06:15:26.184Z,20
2018-06-18T06:16:16.529Z,20
2018-06-18T06:17:05.897Z,20
2018-06-18T06:17:55.796Z,20
2018-06-18T06:18:45.866Z,20
2018-06-18T06:19:35.613Z,20
2018-06-18T06:20:26.786Z,20
2018-06-18T06:21:16.572Z,20
2018-06-18T06:22:06.467Z,20
2018-06-18T06:22:56.975Z,20
2018-06-18T06:23:46.788Z,20
2018-06-18T06:24:37.050Z,20
2018-06-18T06:25:27.671Z,20
2018-06-18T06:26:16.749Z,20
2018-06-18T06:27:07.809Z,20
2018-06-18T06:27:57.831Z,20
2018-06-18T06:28:47.610Z,20
2018-06-18T06:29:38.574Z,20
2018-06-18T06:30:27.802Z,20
2018-06-18T06:31:17.903Z,20
2018-06-18T06:32:07.917Z,20
2018-06-18T06:32:57.700Z,20
2018-06-18T06:33:48.271Z,20
2018-06-18T06:34:38.344Z,20
2018-06-18T06:35:27.902Z,20
2018-06-18T06:36:17.700Z,20
2018-06-18T06:37:07.416Z,20
2018-06-18T06:37:58.426Z,20
2018-06-18T06:38:48.364Z,20
2018-06-18T06:39:38.750Z,20
2018-06-18T06:40:28.517Z,20
2018-06-18T06:41:18.630Z,20
2018-06-18T06:42:08.726Z,20
2018-06-18T06:42:58.723Z,20
2018-06-18T06:43:48.792Z,20
2018-06-18T06:44:38.845Z,20
2018-06-18T06:45:28.894Z,20.1
2018-06-18T06:46:18.449Z,20
2018-06-18T06:47:09.040Z,20
2018-06-18T06:47:59.143Z,20.1
2018-06-18T06:48:49.406Z,20
2018-06-18T06:49:39.543Z,20
2018-06-18T06:50:29.635Z,20
2018-06-18T06:51:18.568Z,20
2018-06-18T06:52:08.864Z,20.1
2018-06-18T06:52:59.736Z,20
2018-06-18T06:53:48.409Z,20
2018-06-18T06:54:39.508Z,20
2018-06-18T06:55:30.108Z,20.1
2018-06-18T06:56:18.929Z,20
2018-06-18T06:57:09.837Z,20.1
2018-06-18T06:57:59.041Z,20
2018-06-18T06:58:49.737Z,20.1
2018-06-18T06:59:40.004Z,20.1
2018-06-18T07:00:29.219Z,20.1
2018-06-18T07:01:20.761Z,20.1
2018-06-18T07:02:09.697Z,20.1
2018-06-18T07:02:58.831Z,20.1
2018-06-18T07:03:49.433Z,20.1
2018-06-18T07:04:40.107Z,20.1
2018-06-18T07:05:30.710Z,20.1
2018-06-18T07:06:19.668Z,20.1
2018-06-18T07:07:10.021Z,20.1
2018-06-18T07:08:00.134Z,20.1
2018-06-18T07:08:50.465Z,20.1
2018-06-18T07:09:40.192Z,20
2018-06-18T07:10:30.874Z,20.1
2018-06-18T07:11:20.089Z,20.1
2018-06-18T07:12:11.241Z,20.1
2018-06-18T07:13:00.785Z,20.1
2018-06-18T07:13:50.831Z,20.1
2018-06-18T07:14:39.787Z,20.1
2018-06-18T07:15:31.509Z,20.1
2018-06-18T07:16:21.307Z,20.1
2018-06-18T07:17:11.377Z,20.1
2018-06-18T07:18:01.180Z,20.1
2018-06-18T07:18:51.490Z,20
2018-06-18T07:19:40.485Z,20.1
2018-06-18T07:20:30.928Z,20.1
2018-06-18T07:21:21.712Z,20.1
2018-06-18T07:22:11.758Z,20.1
2018-06-18T07:23:01.337Z,20.1
2018-06-18T07:23:50.222Z,20.1
2018-06-18T07:24:41.266Z,20.1
2018-06-18T07:25:31.785Z,20.1
2018-06-18T07:26:21.585Z,20.1
2018-06-18T07:27:11.197Z,20.1
2018-06-18T07:28:00.876Z,20.1
2018-06-18T07:28:50.937Z,20.1
2018-06-18T07:29:41.461Z,20.1
2018-06-18T07:30:35.010Z,20.1
2018-06-18T07:31:22.697Z,20.1
2018-06-18T07:32:12.822Z,20.1
2018-06-18T07:33:01.983Z,20.1
2018-06-18T07:33:52.932Z,20.1
2018-06-18T07:34:42.661Z,20.1
2018-06-18T07:35:32.800Z,20.1
2018-06-18T07:36:21.761Z,20.1
2018-06-18T07:37:11.551Z,20.1
2018-06-18T07:38:03.264Z,20.1
2018-06-18T07:38:53.014Z,20.1
2018-06-18T07:39:43.078Z,20.1
2018-06-18T07:40:32.353Z,20.1
2018-06-18T07:41:22.435Z,20.1
2018-06-18T07:42:12.448Z,20.1
2018-06-18T07:43:03.308Z,20.1
2018-06-18T07:43:53.626Z,20.1
2018-06-18T07:44:42.897Z,20.1
2018-06-18T07:45:33.108Z,20.1
2018-06-18T07:46:22.992Z,20.1
2018-06-18T07:47:12.828Z,20.1
2018-06-18T07:48:04.051Z,20.1
2018-06-18T07:48:52.698Z,20.1
2018-06-18T07:49:42.978Z,20.1
2018-06-18T07:50:33.631Z,20.1
2018-06-18T07:51:23.172Z,20.1
2018-06-18T07:52:13.787Z,20.1
2018-06-18T07:53:04.079Z,20.1
2018-06-18T07:53:54.177Z,20.1
2018-06-18T07:54:43.669Z,20.1
2018-06-18T07:55:33.444Z,20.1
2018-06-18T07:56:23.488Z,20.1
2018-06-18T07:57:13.545Z,20.1
2018-06-18T07:58:03.920Z,20.1
2018-06-18T07:58:54.264Z,20.1
2018-06-18T07:59:44.091Z,20.1
2018-06-18T08:00:34.023Z,20.1
2018-06-18T08:01:24.923Z,20.1
2018-06-18T08:02:15.003Z,20.1
2018-06-18T08:03:04.801Z,20.1
2018-06-18T08:03:54.028Z,20.1
2018-06-18T08:04:44.737Z,20.1
2018-06-18T08:05:35.280Z,20.1
2018-06-18T08:06:25.023Z,20.1
2018-06-18T08:07:15.387Z,20.1
2018-06-18T08:08:04.812Z,20.1
2018-06-18T08:08:55.522Z,20.1
2018-06-18T08:09:46.827Z,20.1
2018-06-18T08:10:35.205Z,20.1
2018-06-18T08:11:24.955Z,20.1
2018-06-18T08:12:15.272Z,20.1
2018-06-18T08:13:05.881Z,20.1
2018-06-18T08:13:55.952Z,20.1
2018-06-18T08:14:45.145Z,20.1
2018-06-18T08:15:35.785Z,20.1
2018-06-18T08:16:24.770Z,20.1
2018-06-18T08:17:15.870Z,20.1
2018-06-18T08:18:05.795Z,20.1
2018-06-18T08:18:55.485Z,20.1
2018-06-18T08:19:45.584Z,20.1
2018-06-18T08:20:35.754Z,20.1
2018-06-18T08:21:25.946Z,20.1
2018-06-18T08:22:16.004Z,20.1
2018-06-18T08:23:06.800Z,20.1
2018-06-18T08:23:56.782Z,20.1
2018-06-18T08:24:45.722Z,20.1
2018-06-18T08:25:35.284Z,20.1
2018-06-18T08:26:26.927Z,20.1
2018-06-18T08:27:15.882Z,20.1
2018-06-18T08:28:06.497Z,20.1
2018-06-18T08:28:55.764Z,20.1
2018-06-18T08:29:46.602Z,20.1
2018-06-18T08:30:36.705Z,20.1
2018-06-18T08:31:26.733Z,20.1
2018-06-18T08:32:16.784Z,20.1
2018-06-18T08:33:06.333Z,20.1
2018-06-18T08:33:57.496Z,20.1
2018-06-18T08:34:47.767Z,20.1
2018-06-18T08:35:37.054Z,20.1
2018-06-18T08:36:28.059Z,20.1
2018-06-18T08:37:16.361Z,20.1
2018-06-18T08:38:07.530Z,20.2
2018-06-18T08:38:57.312Z,20.1
2018-06-18T08:39:46.816Z,20.1
2018-06-18T08:40:36.973Z,20.1
2018-06-18T08:41:27.520Z,20.1
2018-06-18T08:42:17.085Z,20.1
2018-06-18T08:43:07.919Z,20.1
2018-06-18T08:43:58.030Z,20.1
2018-06-18T08:44:48.006Z,20.2
2018-06-18T08:45:38.306Z,20.1
2018-06-18T08:46:27.885Z,20.1
2018-06-18T08:47:18.465Z,20.1
2018-06-18T08:48:07.428Z,20.1
2018-06-18T08:48:58.684Z,20.2
2018-06-18T08:49:48.458Z,20.1
2018-06-18T08:50:39.480Z,20.1
2018-06-18T08:51:28.059Z,20.2
2018-06-18T08:52:18.739Z,20.1
2018-06-18T08:53:07.862Z,20.2
2018-06-18T08:53:58.763Z,20.2
2018-06-18T08:54:47.978Z,20.2
2018-06-18T08:55:38.697Z,20.2
2018-06-18T08:56:28.960Z,20.1
2018-06-18T08:57:18.980Z,20.2
2018-06-18T08:58:08.110Z,20.2
2018-06-18T08:58:58.553Z,20.1
2018-06-18T08:59:48.644Z,20.2
2018-06-18T09:00:38.977Z,20.2
2018-06-18T09:01:29.009Z,20.2
2018-06-18T09:02:19.391Z,20.2
2018-06-18T09:03:09.836Z,20.2
2018-06-18T09:03:59.250Z,20.1
2018-06-18T09:04:49.099Z,20.2
2018-06-18T09:05:39.916Z,20.2
2018-06-18T09:06:28.705Z,20.2
2018-06-18T09:07:19.532Z,20.2
2018-06-18T09:08:07.951Z,20.2
2018-06-18T09:08:59.683Z,20.2
2018-06-18T09:09:49.647Z,20.2
2018-06-18T09:10:39.838Z,20.2
2018-06-18T09:11:29.338Z,20.2
2018-06-18T09:12:19.045Z,20.2
2018-06-18T09:13:09.359Z,20.2
2018-06-18T09:13:59.879Z,20.2
2018-06-18T09:14:50.613Z,20.2
2018-06-18T09:15:39.289Z,20.2
2018-06-18T09:16:29.701Z,20.2
2018-06-18T09:17:20.231Z,20.2
2018-06-18T09:18:08.915Z,20.2
2018-06-18T09:18:58.431Z,20.2
2018-06-18T09:19:50.394Z,20.2
2018-06-18T09:20:40.295Z,20.2
2018-06-18T09:21:29.813Z,20.2
2018-06-18T09:22:20.634Z,20.2
2018-06-18T09:23:10.672Z,20.2
2018-06-18T09:24:01.098Z,20.2
2018-06-18T09:24:50.549Z,20.2
2018-06-18T09:25:40.242Z,20.2
2018-06-18T09:26:29.895Z,20.2
2018-06-18T09:27:20.516Z,20.2
2018-06-18T09:28:10.506Z,20.2
2018-06-18T09:29:01.153Z,20.2
2018-06-18T09:29:51.057Z,20.2
2018-06-18T09:30:41.504Z,20.2
2018-06-18T09:31:30.479Z,20.2
2018-06-18T09:32:25.588Z,20.2
2018-06-18T09:33:11.781Z,20.2
2018-06-18T09:34:00.947Z,20.2
2018-06-18T09:34:51.872Z,20.3
2018-06-18T09:35:41.944Z,20.2
2018-06-18T09:36:32.058Z,20.2
2018-06-18T09:37:21.359Z,20.3
2018-06-18T09:38:11.880Z,20.2
2018-06-18T09:39:02.495Z,20.3
2018-06-18T09:39:51.240Z,20.2
2018-06-18T09:40:41.766Z,20.2
2018-06-18T09:41:32.137Z,20.3
2018-06-18T09:42:21.605Z,20.3
2018-06-18T09:43:11.944Z,20.2
2018-06-18T09:44:02.560Z,20.3
2018-06-18T09:44:52.160Z,20.2
2018-06-18T09:45:42.417Z,20.3
2018-06-18T09:46:32.276Z,20.3
2018-06-18T09:47:22.844Z,20.2
2018-06-18T09:48:12.707Z,20.2
2018-06-18T09:49:02.441Z,20.3
2018-06-18T09:49:51.480Z,20.3
2018-06-18T09:50:43.105Z,20.2
2018-06-18T09:51:32.848Z,20.2
2018-06-18T09:52:22.658Z,20.3
2018-06-18T09:53:12.707Z,20.3
2018-06-18T09:54:03.410Z,20.3
2018-06-18T09:54:52.850Z,20.3
2018-06-18T09:55:44.188Z,20.3
2018-06-18T09:56:33.521Z,20.3
2018-06-18T09:57:23.045Z,20.3
2018-06-18T09:58:13.153Z,20.3
2018-06-18T09:59:02.688Z,20.2
2018-06-18T09:59:53.761Z,20.3
2018-06-18T10:00:43.570Z,20.3
2018-06-18T10:01:33.599Z,20.3
2018-06-18T10:02:24.774Z,20.3
2018-06-18T10:03:14.103Z,20.3
2018-06-18T10:04:03.565Z,20.3
2018-06-18T10:04:53.373Z,20.3
2018-06-18T10:05:43.398Z,20.3
2018-06-18T10:06:34.246Z,20.3
2018-06-18T10:07:24.062Z,20.3
2018-06-18T10:08:14.672Z,20.3
2018-06-18T10:09:04.524Z,20.3
2018-06-18T10:09:54.595Z,20.2
2018-06-18T10:10:44.979Z,20.3
2018-06-18T10:11:33.851Z,20.3
2018-06-18T10:12:24.188Z,20.3
2018-06-18T10:13:14.555Z,20.3
2018-06-18T10:14:05.213Z,20.3
2018-06-18T10:14:54.692Z,20.3
2018-06-18T10:15:44.745Z,20.3
2018-06-18T10:16:34.074Z,20.3
2018-06-18T10:17:24.584Z,20.3
2018-06-18T10:18:14.617Z,20.3
2018-06-18T10:19:04.970Z,20.3
2018-06-18T10:19:54.540Z,20.3
2018-06-18T10:20:45.106Z,20.3
2018-06-18T10:21:34.918Z,20.3
2018-06-18T10:22:25.507Z,20.3
2018-06-18T10:23:15.330Z,20.3
2018-06-18T10:24:05.617Z,20.3
2018-06-18T10:24:54.695Z,20.3
2018-06-18T10:25:44.402Z,20.3
2018-06-18T10:26:35.014Z,20.3
2018-06-18T10:27:25.456Z,20.3
2018-06-18T10:28:15.107Z,20.3
2018-06-18T10:29:05.195Z,20.3
2018-06-18T10:29:55.566Z,20.3
2018-06-18T10:30:45.563Z,20.3
2018-06-18T10:31:36.179Z,20.3
2018-06-18T10:32:26.256Z,20.3
2018-06-18T10:33:15.566Z,20.3
2018-06-18T10:34:05.902Z,20.3
2018-06-18T10:34:56.195Z,20.3
2018-06-18T10:35:46.606Z,20.3
2018-06-18T10:36:36.315Z,20.3
2018-06-18T10:37:26.352Z,20.3
2018-06-18T10:38:16.697Z,20.3
2018-06-18T10:39:06.563Z,20.3
2018-06-18T10:39:56.840Z,20.3
2018-06-18T10:40:46.902Z,20.3
2018-06-18T10:41:38.613Z,20.3
2018-06-18T10:42:27.041Z,20.3
2018-06-18T10:43:16.838Z,20.3
2018-06-18T10:44:06.915Z,20.3
2018-06-18T10:44:57.245Z,20.3
2018-06-18T10:45:47.363Z,20.3
2018-06-18T10:46:37.323Z,20.3
2018-06-18T10:47:27.701Z,20.3
2018-06-18T10:48:16.925Z,20.3
2018-06-18T10:49:08.045Z,20.3
2018-06-18T10:49:57.345Z,20.3
2018-06-18T10:50:47.717Z,20.3
2018-06-18T10:51:38.111Z,20.3
2018-06-18T10:52:27.837Z,20.3
2018-06-18T10:53:16.751Z,20.3
2018-06-18T10:54:07.126Z,20.3
2018-06-18T10:54:57.400Z,20.3
2018-06-18T10:55:47.789Z,20.3
2018-06-18T10:56:38.174Z,20.3
2018-06-18T10:57:27.674Z,20.3
2018-06-18T10:58:17.477Z,20.3
2018-06-18T10:59:08.079Z,20.3
2018-06-18T10:59:58.450Z,20.3
2018-06-18T11:00:47.446Z,20.3
2018-06-18T11:01:37.743Z,20.3
2018-06-18T11:02:27.564Z,20.3
2018-06-18T11:03:17.845Z,20.3
2018-06-18T11:04:07.967Z,20.3
2018-06-18T11:04:58.482Z,20.3
2018-06-18T11:05:48.569Z,20.3
2018-06-18T11:06:38.160Z,20.3
2018-06-18T11:07:29.009Z,20.3
2018-06-18T11:08:17.674Z,20.3
2018-06-18T11:09:08.854Z,20.3
2018-06-18T11:09:58.455Z,20.3
2018-06-18T11:10:48.931Z,20.3
2018-06-18T11:11:39.599Z,20.3
2018-06-18T11:12:29.060Z,20.3
2018-06-18T11:13:18.570Z,20.3
2018-06-18T11:14:09.492Z,20.3
2018-06-18T11:14:59.319Z,20.3
2018-06-18T11:15:49.209Z,20.3
2018-06-18T11:16:45.187Z,20.3
2018-06-18T11:17:35.410Z,20.3
2018-06-18T11:18:19.408Z,20.3
2018-06-18T11:19:09.309Z,20.3
2018-06-18T11:19:59.066Z,20.3
2018-06-18T11:20:49.955Z,20.3
2018-06-18T11:21:40.039Z,20.3
2018-06-18T11:22:29.023Z,20.3
2018-06-18T11:23:19.705Z,20.3
2018-06-18T11:24:09.578Z,20.3
2018-06-18T11:25:00.031Z,20.3
2018-06-18T11:25:49.085Z,20.3
2018-06-18T11:26:41.956Z,20.3
2018-06-18T11:27:30.406Z,20.3
2018-06-18T11:28:22.922Z,20.3
2018-06-18T11:29:10.369Z,20.3
2018-06-18T11:30:00.485Z,20.3
2018-06-18T11:30:49.102Z,20.3
2018-06-18T11:31:40.807Z,20.3
2018-06-18T11:32:30.722Z,20.3
2018-06-18T11:33:21.239Z,20.3
2018-06-18T11:34:10.150Z,20.3
2018-06-18T11:35:01.315Z,20.3
2018-06-18T11:35:51.317Z,20.3
2018-06-18T11:36:41.035Z,20.3
2018-06-18T11:37:30.702Z,20.3
2018-06-18T11:38:21.079Z,20.3
2018-06-18T11:39:10.509Z,20.3
2018-06-18T11:40:01.159Z,20.3
2018-06-18T11:40:52.404Z,20.3
2018-06-18T11:41:42.265Z,20.3
2018-06-18T11:42:31.983Z,20.3
2018-06-18T11:43:22.132Z,20.3
2018-06-18T11:44:11.803Z,20.3
2018-06-18T11:45:01.362Z,20.3
2018-06-18T11:45:53.272Z,20.3
2018-06-18T11:46:41.215Z,20.3
2018-06-18T11:47:32.328Z,20.3
2018-06-18T11:48:23.811Z,20.3
2018-06-18T11:49:12.146Z,20.3
2018-06-18T11:50:01.768Z,20.3
2018-06-18T11:50:51.692Z,20.3
2018-06-18T11:51:42.086Z,20.3
2018-06-18T11:52:32.577Z,20.3
2018-06-18T11:53:21.911Z,20.3
2018-06-18T11:54:12.175Z,20.3
2018-06-18T11:55:02.131Z,20.3
2018-06-18T11:55:53.336Z,20.3
2018-06-18T11:56:41.930Z,20.3
2018-06-18T11:57:32.771Z,20.3
2018-06-18T11:58:23.774Z,20.3
2018-06-18T11:59:13.247Z,20.3
2018-06-18T12:00:02.406Z,20.3
2018-06-18T12:00:52.797Z,20.3
2018-06-18T12:01:43.463Z,20.3
2018-06-18T12:02:33.461Z,20.3
2018-06-18T12:03:22.756Z,20.3
2018-06-18T12:04:12.725Z,20.3
2018-06-18T12:05:03.398Z,20.4
2018-06-18T12:05:52.913Z,20.3
2018-06-18T12:06:42.644Z,20.4
2018-06-18T12:07:33.130Z,20.3
2018-06-18T12:08:23.345Z,20.3
2018-06-18T12:09:13.424Z,20.3
2018-06-18T12:10:04.767Z,20.3
2018-06-18T12:10:53.780Z,20.4
2018-06-18T12:11:43.454Z,20.4
2018-06-18T12:12:33.991Z,20.4
2018-06-18T12:13:23.435Z,20.3
2018-06-18T12:14:14.335Z,20.4
2018-06-18T12:15:03.891Z,20.4
2018-06-18T12:15:54.193Z,20.4
2018-06-18T12:16:43.821Z,20.4
2018-06-18T12:17:33.753Z,20.3
2018-06-18T12:18:38.481Z,20.4
2018-06-18T12:19:13.980Z,20.4
2018-06-18T12:20:03.959Z,20.4
2018-06-18T12:20:54.624Z,20.4
2018-06-18T12:21:43.876Z,20.4
2018-06-18T12:22:34.264Z,20.4
2018-06-18T12:23:24.202Z,20.4
2018-06-18T12:24:14.822Z,20.4
2018-06-18T12:25:04.931Z,20.4
2018-06-18T12:25:54.477Z,20.4
2018-06-18T12:26:44.829Z,20.4
2018-06-18T12:27:35.083Z,20.4
2018-06-18T12:28:24.833Z,20.4
2018-06-18T12:29:15.218Z,20.4
2018-06-18T12:30:04.795Z,20.4
2018-06-18T12:30:54.500Z,20.4
2018-06-18T12:31:45.182Z,20.4
2018-06-18T12:32:34.755Z,20.4
2018-06-18T12:33:25.260Z,20.4
2018-06-18T12:34:15.326Z,20.4
2018-06-18T12:35:05.679Z,20.4
2018-06-18T12:35:55.562Z,20.4
2018-06-18T12:36:45.512Z,20.4
2018-06-18T12:37:35.049Z,20.4
2018-06-18T12:38:26.177Z,20.4
2018-06-18T12:39:15.018Z,20.4
2018-06-18T12:40:06.348Z,20.4
2018-06-18T12:40:56.049Z,20.4
2018-06-18T12:41:45.588Z,20.4
2018-06-18T12:42:36.182Z,20.4
2018-06-18T12:43:26.510Z,20.4
2018-06-18T12:44:16.063Z,20.4
2018-06-18T12:45:06.205Z,20.4
2018-06-18T12:45:56.856Z,20.4
2018-06-18T12:46:48.312Z,20.4
2018-06-18T12:47:36.138Z,20.4
2018-06-18T12:48:26.731Z,20.4
2018-06-18T12:49:16.763Z,20.4
2018-06-18T12:50:06.640Z,20.4
2018-06-18T12:50:56.295Z,20.4
2018-06-18T12:51:46.929Z,20.4
2018-06-18T12:52:37.018Z,20.4
2018-06-18T12:53:27.255Z,20.4
2018-06-18T12:54:17.090Z,20.4
2018-06-18T12:55:07.174Z,20.4
2018-06-18T12:55:57.212Z,20.4
2018-06-18T12:56:46.817Z,20.4
2018-06-18T12:57:37.652Z,20.4
2018-06-18T12:58:26.604Z,20.4
2018-06-18T12:59:16.976Z,20.4
2018-06-18T13:00:07.125Z,20.4
2018-06-18T13:00:57.091Z,20.4
2018-06-18T13:01:47.415Z,20.4
2018-06-18T13:02:37.002Z,20.4
2018-06-18T13:03:29.260Z,20.4
2018-06-18T13:04:17.932Z,20.4
2018-06-18T13:05:07.470Z,20.4
2018-06-18T13:05:57.774Z,20.4
2018-06-18T13:06:47.397Z,20.4
2018-06-18T13:07:38.197Z,20.5
2018-06-18T13:08:26.848Z,20.4
2018-06-18T13:09:17.499Z,20.4
2018-06-18T13:10:08.810Z,20.4
2018-06-18T13:10:57.914Z,20.5
2018-06-18T13:11:47.975Z,20.4
2018-06-18T13:12:36.913Z,20.5
2018-06-18T13:13:28.686Z,20.4
2018-06-18T13:14:18.974Z,20.5
2018-06-18T13:15:08.203Z,20.4
2018-06-18T13:15:59.103Z,20.5
2018-06-18T13:16:48.400Z,20.5
2018-06-18T13:17:38.782Z,20.5
2018-06-18T13:18:43.368Z,20.5
2018-06-18T13:19:18.610Z,20.5
2018-06-18T13:20:08.376Z,20.5
2018-06-18T13:20:58.962Z,20.5
2018-06-18T13:21:49.187Z,20.5
2018-06-18T13:22:39.068Z,20.5
2018-06-18T13:23:29.439Z,20.5
2018-06-18T13:24:19.533Z,20.5
2018-06-18T13:25:09.885Z,20.5
2018-06-18T13:25:59.038Z,20.5
2018-06-18T13:26:49.091Z,20.5
2018-06-18T13:27:39.073Z,20.5
2018-06-18T13:28:29.835Z,20.5
2018-06-18T13:29:20.134Z,20.5
2018-06-18T13:30:08.538Z,20.5
2018-06-18T13:31:00.303Z,20.5
2018-06-18T13:31:49.810Z,20.5
2018-06-18T13:32:38.697Z,20.5
2018-06-18T13:33:29.682Z,20.5
2018-06-18T13:34:18.890Z,20.5
2018-06-18T13:35:10.081Z,20.5
2018-06-18T13:36:00.442Z,20.5
2018-06-18T13:36:49.430Z,20.5
2018-06-18T13:37:39.435Z,20.5
2018-06-18T13:38:30.002Z,20.5
2018-06-18T13:39:20.334Z,20.5
2018-06-18T13:40:10.449Z,20.5
2018-06-18T13:41:00.064Z,20.5
2018-06-18T13:41:50.095Z,20.5
2018-06-18T13:42:40.074Z,20.5
2018-06-18T13:43:30.938Z,20.5
2018-06-18T13:44:20.513Z,20.5
2018-06-18T13:45:09.795Z,20.5
2018-06-18T13:46:00.338Z,20.5
2018-06-18T13:46:50.940Z,20.5
2018-06-18T13:47:40.282Z,20.5
2018-06-18T13:48:30.802Z,20.5
2018-06-18T13:49:20.842Z,20.5
2018-06-18T13:50:11.192Z,20.5
2018-06-18T13:51:01.273Z,20.5
2018-06-18T13:51:49.429Z,20.5
2018-06-18T13:52:43.285Z,20.5
2018-06-18T13:53:31.747Z,20.5
2018-06-18T13:54:20.448Z,20.5
2018-06-18T13:55:11.918Z,20.5
2018-06-18T13:56:01.064Z,20.5
2018-06-18T13:56:50.949Z,20.5
2018-06-18T13:57:40.946Z,20.5
2018-06-18T13:58:32.407Z,20.5
2018-06-18T13:59:21.908Z,20.5
2018-06-18T14:00:11.673Z,20.5
2018-06-18T14:01:02.593Z,20.5
2018-06-18T14:01:52.447Z,20.5
2018-06-18T14:02:41.905Z,20.5
2018-06-18T14:03:32.020Z,20.5
2018-06-18T14:04:22.034Z,20.5
2018-06-18T14:05:11.995Z,20.5
2018-06-18T14:06:02.542Z,20.5
2018-06-18T14:06:52.998Z,20.5
2018-06-18T14:07:43.129Z,20.5
2018-06-18T14:08:32.664Z,20.5
2018-06-18T14:09:22.742Z,20.5
2018-06-18T14:10:12.410Z,20.5
2018-06-18T14:11:02.514Z,20.5
2018-06-18T14:11:52.581Z,20.5
2018-06-18T14:12:43.131Z,20.5
2018-06-18T14:13:32.961Z,20.5
2018-06-18T14:14:23.681Z,20.5
2018-06-18T14:15:13.371Z,20.5
2018-06-18T14:16:03.474Z,20.5
2018-06-18T14:16:53.237Z,20.6
2018-06-18T14:17:43.032Z,20.5
2018-06-18T14:18:33.358Z,20.5
2018-06-18T14:19:23.938Z,20.5
2018-06-18T14:20:13.233Z,20.5
2018-06-18T14:21:03.076Z,20.5
2018-06-18T14:21:53.053Z,20.6
2018-06-18T14:22:43.933Z,20.5
2018-06-18T14:23:33.189Z,20.5
2018-06-18T14:24:24.398Z,20.5
2018-06-18T14:25:13.797Z,20.5
2018-06-18T14:26:03.673Z,20.5
2018-06-18T14:26:53.981Z,20.5
2018-06-18T14:27:44.560Z,20.5
2018-06-18T14:28:34.766Z,20.5
2018-06-18T14:29:24.227Z,20.5
2018-06-18T14:30:14.513Z,20.5
2018-06-18T14:31:04.295Z,20.6
2018-06-18T14:31:54.683Z,20.5
2018-06-18T14:32:44.394Z,20.6
2018-06-18T14:33:34.745Z,20.6
2018-06-18T14:34:24.570Z,20.5
2018-06-18T14:35:14.957Z,20.6
2018-06-18T14:36:04.454Z,20.5
2018-06-18T14:36:54.584Z,20.5
2018-06-18T14:37:45.439Z,20.6
2018-06-18T14:38:35.531Z,20.6
2018-06-18T14:39:24.774Z,20.5
2018-06-18T14:40:16.099Z,20.6
2018-06-18T14:41:05.109Z,20.6
2018-06-18T14:41:55.498Z,20.6
2018-06-18T14:42:46.559Z,20.6
2018-06-18T14:43:35.335Z,20.6
2018-06-18T14:44:25.415Z,20.6
2018-06-18T14:45:15.794Z,20.5
2018-06-18T14:46:08.556Z,20.6
2018-06-18T14:46:55.557Z,20.6
2018-06-18T14:47:46.565Z,20.6
2018-06-18T14:48:39.963Z,20.6
2018-06-18T14:49:25.494Z,20.6
2018-06-18T14:50:15.830Z,20.6
2018-06-18T14:51:06.179Z,20.6
2018-06-18T14:51:56.245Z,20.6
2018-06-18T14:52:47.930Z,20.6
2018-06-18T14:53:36.045Z,20.6
2018-06-18T14:54:28.096Z,20.6
2018-06-18T14:55:16.728Z,20.6
2018-06-18T14:56:07.666Z,20.6
2018-06-18T14:56:57.612Z,20.6
2018-06-18T14:57:46.653Z,20.6
2018-06-18T14:58:36.450Z,20.6
2018-06-18T14:59:26.996Z,20.6
2018-06-18T15:00:16.900Z,20.6
2018-06-18T15:01:06.082Z,20.6
2018-06-18T15:01:57.443Z,20.6
2018-06-18T15:02:47.766Z,20.6
2018-06-18T15:03:36.869Z,20.6
2018-06-18T15:04:27.256Z,20.6
2018-06-18T15:05:16.143Z,20.6
2018-06-18T15:06:07.343Z,20.6
2018-06-18T15:06:57.079Z,20.6
2018-06-18T15:07:47.108Z,20.6
2018-06-18T15:08:38.474Z,20.6
2018-06-18T15:09:29.318Z,20.6
2018-06-18T15:10:18.072Z,20.6
2018-06-18T15:11:07.678Z,20.6
2018-06-18T15:11:58.063Z,20.6
2018-06-18T15:12:49.943Z,20.6
2018-06-18T15:13:37.634Z,20.6
2018-06-18T15:14:27.644Z,20.6
2018-06-18T15:15:17.723Z,20.6
2018-06-18T15:16:09.451Z,20.6
2018-06-18T15:16:57.854Z,20.6
2018-06-18T15:17:48.295Z,20.6
2018-06-18T15:18:38.033Z,20.6
2018-06-18T15:19:28.887Z,20.6
2018-06-18T15:20:18.160Z,20.6
2018-06-18T15:21:09.078Z,20.6
2018-06-18T15:21:57.950Z,20.6
2018-06-18T15:22:48.299Z,20.6
2018-06-18T15:23:38.684Z,20.6
2018-06-18T15:24:28.397Z,20.6
2018-06-18T15:25:18.728Z,20.6
2018-06-18T15:26:09.874Z,20.6
2018-06-18T15:27:01.747Z,20.6
2018-06-18T15:27:48.713Z,20.6
2018-06-18T15:28:38.267Z,20.6
2018-06-18T15:29:28.676Z,20.6
2018-06-18T15:30:17.810Z,20.6
2018-06-18T15:31:08.506Z,20.6
2018-06-18T15:31:57.717Z,20.6
2018-06-18T15:32:48.559Z,20.6
2018-06-18T15:33:39.151Z,20.6
2018-06-18T15:34:28.563Z,20.6
2018-06-18T15:35:17.899Z,20.6
2018-06-18T15:36:08.924Z,20.6
2018-06-18T15:36:59.481Z,20.6
2018-06-18T15:37:48.959Z,20.6
2018-06-18T15:38:40.191Z,20.6
2018-06-18T15:39:28.779Z,20.6
2018-06-18T15:40:19.910Z,20.6
2018-06-18T15:41:08.904Z,20.6
2018-06-18T15:41:59.825Z,20.6
2018-06-18T15:42:50.105Z,20.6
2018-06-18T15:43:40.145Z,20.6
2018-06-18T15:44:31.800Z,20.6
2018-06-18T15:45:19.741Z,20.6
2018-06-18T15:46:09.773Z,20.6
2018-06-18T15:47:00.173Z,20.6
2018-06-18T15:47:49.910Z,20.6
2018-06-18T15:48:39.755Z,20.6
2018-06-18T15:49:30.391Z,20.6
2018-06-18T15:50:20.823Z,20.6
2018-06-18T15:51:10.745Z,20.6
2018-06-18T15:52:00.231Z,20.6
2018-06-18T15:52:50.592Z,20.6
2018-06-18T15:53:40.368Z,20.6
2018-06-18T15:54:30.423Z,20.6
2018-06-18T15:55:20.210Z,20.6
2018-06-18T15:56:10.873Z,20.5
2018-06-18T15:57:03.733Z,20.6
2018-06-18T15:57:51.268Z,20.6
2018-06-18T15:58:40.747Z,20.6
2018-06-18T15:59:31.118Z,20.6
2018-06-18T16:00:21.682Z,20.6
2018-06-18T16:01:10.384Z,20.6
2018-06-18T16:02:01.863Z,20.6
2018-06-18T16:02:51.064Z,20.6
2018-06-18T16:03:41.440Z,20.6
2018-06-18T16:04:32.037Z,20.6
2018-06-18T16:05:21.017Z,20.6
2018-06-18T16:06:10.717Z,20.6
2018-06-18T16:07:01.939Z,20.6
2018-06-18T16:07:51.256Z,20.6
2018-06-18T16:08:42.071Z,20.5
2018-06-18T16:09:31.867Z,20.5
2018-06-18T16:10:21.352Z,20.6
2018-06-18T16:11:12.292Z,20.6
2018-06-18T16:12:02.314Z,20.6
2018-06-18T16:12:51.242Z,20.6
2018-06-18T16:13:41.911Z,20.5
2018-06-18T16:14:32.557Z,20.6
2018-06-18T16:15:22.016Z,20.6
2018-06-18T16:16:11.773Z,20.6
2018-06-18T16:17:01.581Z,20.6
2018-06-18T16:17:53.047Z,20.5
2018-06-18T16:18:42.249Z,20.5
2018-06-18T16:19:32.883Z,20.6
2018-06-18T16:20:22.409Z,20.5
2018-06-18T16:21:13.046Z,20.6
2018-06-18T16:22:03.383Z,20.5
2018-06-18T16:22:53.214Z,20.6
2018-06-18T16:23:42.349Z,20.5
2018-06-18T16:24:32.727Z,20.6
2018-06-18T16:25:22.262Z,20.6
2018-06-18T16:26:12.944Z,20.6
2018-06-18T16:27:02.617Z,20.6